Nearby METAR Reports

 

KVSF - Springfield, Vermont, USA
Distance from station: WNW 17mi, 27km
Updated: Sat, Apr-21-2018 10:54am EDT
Clear
Clear
 Wind from W
Wind: W 12 mph , 19 km/h, Gust: 23 mph , 37 km/h
Temperature: 46°F , 8°C
Wind Chill: 40°F , 4°C
Dew Point: 21°F , -6°C
Humidity: 37%
Barometer: 30.31 inHg , 1026.4 hPa
Clouds: Clear
Visibility: 10 miles , 16 km
2018/04/21 14:54 KVSF 211454Z AUTO 28010G20KT 10SM CLR 08/M06 A3031 RMK AO2 SLP268 T00831056 58003
KLEB - Lebanon, New Hampshire, USA
Distance from station: NNW 24mi, 39km
Updated: Sat, Apr-21-2018 10:53am EDT
Clear
Clear
 Wind from N
Wind: N 13 mph , 20 km/h
Temperature: 50°F , 10°C
Wind Chill: 45°F , 7°C
Dew Point: 21°F , -6°C
Humidity: 32%
Barometer: 30.28 inHg , 1025.4 hPa
Clouds: Clear
Visibility: 10 miles , 16 km
2018/04/21 14:53 KLEB 211453Z 35011KT 10SM CLR 10/M06 A3028 RMK AO2 SLP257 T01001056 58004
 
KEEN - Keene/Dillant, New Hampshire, USA
Distance from station: S 28mi, 45km
Updated: Sat, Apr-21-2018 10:56am EDT
Clear
Clear
 Wind from N
Wind: N 9 mph , 15 km/h, Gust: 20 mph , 31 km/h
Temperature: 52°F , 11°C
Dew Point: 23°F , -5°C
Humidity: 32%
Barometer: 30.30 inHg , 1026.1 hPa
Clouds: Clear
Visibility: 10 miles , 16 km
2018/04/21 14:56 KEEN 211456Z AUTO 35008G17KT 10SM CLR 11/M05 A3030 RMK AO2 SLP284 T01061050 58009
KAFN - Jaffrey, New Hampshire, USA
Distance from station: SSE 35mi, 57km
Updated: Sat, Apr-21-2018 10:52am EDT
Clear
Clear
 Wind from varies
Wind: varies 7 mph , 11 km/h
Temperature: 46°F , 8°C
Wind Chill: 42°F , 6°C
Dew Point: 25°F , -4°C
Humidity: 43%
Barometer: 30.27 inHg , 1025.1 hPa
Clouds: Clear
Visibility: 10 miles , 16 km
2018/04/21 14:52 KAFN 211452Z AUTO VRB06KT 10SM CLR 08/M04 A3027 RMK AO2 SLP264 T00831044 58005
 
KCON - Concord, New Hampshire, USA
Distance from station: E 35mi, 57km
Updated: Sat, Apr-21-2018 10:51am EDT
Clear
Clear
 Wind from NW
Wind: NW 14 mph , 22 km/h, Gust: 23 mph , 37 km/h
Temperature: 50°F , 10°C
Wind Chill: 45°F , 7°C
Dew Point: 21°F , -6°C
Humidity: 32%
Barometer: 30.27 inHg , 1025.1 hPa
Clouds: Clear
Visibility: 10 miles , 16 km
2018/04/21 14:51 KCON 211451Z AUTO 32012G20KT 10SM CLR 10/M06 A3027 RMK AO2 PK WND 32027/1413 SLP253 T01001056 58007
K1P1 - Plymouth, New Hampshire, USA
Distance from station: NNE 41mi, 66km
Updated: Sat, Apr-21-2018 10:55am EDT
Partly cloudy
Partly cloudy
 Wind from W
Wind: W 8 mph , 13 km/h, Gust: 17 mph , 28 km/h
Temperature: 46°F , 8°C
Wind Chill: 42°F , 6°C
Dew Point: 23°F , -5°C
Humidity: 40%
Barometer: 30.27 inHg , 1025.1 hPa
Clouds: Partly cloudy
Visibility: 10 miles , 16 km
Cloud details: Partly cloudy 5500 ft
2018/04/21 14:55 K1P1 211455Z AUTO 28007G15KT 260V340 10SM SCT055 08/M05 A3027 RMK AO2 T00831049
 
KRUT - Rutland State, Vermont, USA
Distance from station: WNW 41mi, 66km
Updated: Sat, Apr-21-2018 10:56am EDT
Partly cloudy
Partly cloudy
 Wind from WNW
Wind: WNW 12 mph , 19 km/h, Gust: 17 mph , 28 km/h
Temperature: 45°F , 7°C
Wind Chill: 39°F , 4°C
Dew Point: 21°F , -6°C
Humidity: 39%
Barometer: 30.31 inHg , 1026.4 hPa
Clouds: Partly cloudy
Visibility: 10 miles , 16 km
Cloud details: Partly cloudy 4900 ft
2018/04/21 14:56 KRUT 211456Z AUTO 30010G15KT 10SM SCT049 07/M06 A3031 RMK AO2 SLP289 T00721056 58003 $
KLCI - Laconia Muni, New Hampshire, USA
Distance from station: ENE 44mi, 70km
Updated: Sat, Apr-21-2018 10:56am EDT
Few Clouds
Few Clouds
 Wind from NW
Wind: NW 14 mph , 22 km/h, Gust: 20 mph , 31 km/h
Temperature: 46°F , 8°C
Wind Chill: 40°F , 4°C
Dew Point: 21°F , -6°C
Humidity: 37%
Barometer: 30.27 inHg , 1025.1 hPa
Clouds: Few Clouds
Visibility: 10 miles , 16 km
Cloud details: Few Clouds 5500 ft
2018/04/21 14:56 KLCI 211456Z AUTO 31012G17KT 10SM FEW055 08/M06 A3027 RMK AO2 SLP268 6//// T00831056 56004
 
KMHT - Manchester, New Hampshire, USA
Distance from station: ESE 46mi, 73km
Updated: Sat, Apr-21-2018 10:53am EDT
Partly cloudy
Partly cloudy
 Wind from WNW
Wind: WNW 16 mph , 26 km/h, Gust: 22 mph , 35 km/h
Temperature: 52°F , 11°C
Dew Point: 21°F , -6°C
Humidity: 30%
Barometer: 30.27 inHg , 1025.1 hPa
Clouds: Partly cloudy
Visibility: 10 miles , 16 km
Cloud details: Partly cloudy 6000 ft
2018/04/21 14:53 KMHT 211453Z 30014G19KT 10SM SCT060 11/M06 A3027 RMK AO2 SLP265 T01061061 58006
KASH - Nashua/Boire Fld, New Hampshire, USA
Distance from station: SE 49mi, 79km
Updated: Sat, Apr-21-2018 10:56am EDT
Partly cloudy
Partly cloudy
 Wind from WNW
Wind: WNW 13 mph , 20 km/h, Gust: 21 mph , 33 km/h
Temperature: 48°F , 9°C
Wind Chill: 43°F , 6°C
Dew Point: 23°F , -5°C
Humidity: 37%
Barometer: 30.29 inHg , 1025.7 hPa
Clouds: Partly cloudy
Visibility: 10 miles , 16 km
Cloud details: Partly cloudy 5000 ft
2018/04/21 14:56 KASH 211456Z 30011G18KT 10SM SCT050 09/M05 A3029 RMK AO2 SLP268 T00941050 58007
 
KORE - Orange, Massachusetts, USA
Distance from station: S 50mi, 81km
Updated: Sat, Apr-21-2018 10:52am EDT
Clear
Clear
 Wind from NNW
Wind: NNW 16 mph , 26 km/h, Gust: 24 mph , 39 km/h
Temperature: 48°F , 9°C
Wind Chill: 42°F , 6°C
Dew Point: 27°F , -3°C
Humidity: 43%
Barometer: 30.31 inHg , 1026.4 hPa
Clouds: Clear
Visibility: 10 miles , 16 km
2018/04/21 14:52 KORE 211452Z AUTO 33014G21KT 10SM CLR 09/M03 A3031 RMK AO2 SLP269 T00941033 56008